Time;durP1;ratioP1;P1;durP2;ratioP2;P2;SDS_P1;SDS_P2;PMS_P1;PMS_P2;Temp;Humidity;BMP_temperature;BMP_pressure;BME280_temperature;BME280_humidity;BME280_pressure;Samples;Min_cycle;Max_cycle;Signal;HPM_P1;HPM_P2
2022/09/07 00:01:28;;;;;;;1999.90;999.90;;;19.10;99.70;;;;;;5065279;28;20411;-61
2022/09/07 00:03:55;;;;;;;1999.90;999.90;;;19.00;99.80;;;;;;5051039;28;20057;-61
2022/09/07 00:06:21;;;;;;;1999.90;999.90;;;19.00;99.90;;;;;;5032736;28;20064;-61
2022/09/07 00:08:47;;;;;;;1999.90;999.90;;;18.90;99.90;;;;;;5051480;28;20049;-61
2022/09/07 00:11:16;;;;;;;1999.90;999.90;;;18.90;99.90;;;;;;5055052;28;20052;-61
2022/09/07 00:13:43;;;;;;;1999.90;999.90;;;18.80;99.90;;;;;;5070460;28;20044;-61
2022/09/07 00:16:13;;;;;;;1999.90;999.90;;;18.70;99.90;;;;;;5072303;28;20556;-61
2022/09/07 00:18:38;;;;;;;1999.90;999.90;;;18.70;99.90;;;;;;5073467;28;20052;-61
2022/09/07 00:21:07;;;;;;;1999.90;999.90;;;18.60;99.90;;;;;;5072990;28;20048;-61
2022/09/07 00:23:34;;;;;;;1999.90;999.90;;;18.50;99.90;;;;;;5073894;28;20080;-61
2022/09/07 00:26:04;;;;;;;1999.90;999.90;;;18.40;99.90;;;;;;5073569;28;20040;-61
2022/09/07 00:28:30;;;;;;;1999.90;999.90;;;18.30;99.90;;;;;;5072989;28;20045;-61
2022/09/07 00:30:56;;;;;;;1999.90;999.90;;;18.30;99.90;;;;;;5073251;28;20114;-61
2022/09/07 00:33:22;;;;;;;1999.90;999.90;;;18.20;99.90;;;;;;5073205;28;20459;-61
2022/09/07 00:35:48;;;;;;;1999.90;999.90;;;18.20;99.90;;;;;;5072885;28;20087;-61
2022/09/07 00:38:14;;;;;;;1999.90;999.90;;;18.20;99.90;;;;;;5073497;28;20493;-61
2022/09/07 00:40:40;;;;;;;1999.90;999.90;;;18.10;99.90;;;;;;5073593;28;20036;-60
2022/09/07 00:43:26;;;;;;;1999.90;999.90;;;18.10;99.90;;;;;;5072482;28;20045;-61
2022/09/07 00:45:52;;;;;;;1999.90;999.90;;;18.20;99.90;;;;;;5073422;28;20044;-61
2022/09/07 00:48:20;;;;;;;1999.90;999.90;;;18.20;99.90;;;;;;5072976;28;20048;-61
2022/09/07 00:50:52;;;;;;;1999.90;999.90;;;18.30;99.90;;;;;;5073490;28;20044;-61
2022/09/07 00:53:23;;;;;;;1999.90;999.90;;;18.30;99.90;;;;;;5073052;28;20052;-61
2022/09/07 00:55:51;;;;;;;1999.90;999.90;;;18.30;99.90;;;;;;5072677;28;20056;-61
2022/09/07 00:58:20;;;;;;;1999.90;999.90;;;18.30;99.90;;;;;;5072996;28;20049;-61
2022/09/07 01:00:47;;;;;;;1999.90;999.90;;;18.30;99.90;;;;;;5073219;28;20406;-61
2022/09/07 01:03:17;;;;;;;1999.90;999.90;;;18.20;99.90;;;;;;5072569;28;20083;-61
2022/09/07 01:05:56;;;;;;;1999.90;999.90;;;18.20;99.90;;;;;;5073291;28;20055;-61
2022/09/07 01:08:22;;;;;;;1999.90;999.90;;;18.20;99.90;;;;;;5073281;28;20398;-61
2022/09/07 01:10:49;;;;;;;1999.90;999.90;;;18.20;99.90;;;;;;5072314;28;20048;-61
2022/09/07 01:13:15;;;;;;;1999.90;999.90;;;18.20;99.90;;;;;;5073182;28;20076;-61
2022/09/07 01:16:09;;;;;;;1999.90;999.90;;;18.30;99.90;;;;;;5073050;28;20052;-61
2022/09/07 01:18:37;;;;;;;1999.90;999.90;;;18.20;99.90;;;;;;5072441;28;20059;-61
2022/09/07 01:21:15;;;;;;;1999.90;999.90;;;18.20;99.90;;;;;;5072993;28;20044;-61
2022/09/07 01:23:56;;;;;;;1999.90;999.90;;;18.20;99.90;;;;;;5072248;28;20051;-61
2022/09/07 01:26:21;;;;;;;1999.90;999.90;;;18.20;99.90;;;;;;5073527;28;20048;-61
2022/09/07 01:28:56;;;;;;;1999.90;999.90;;;18.20;99.90;;;;;;5076976;28;20048;-61
2022/09/07 01:31:48;;;;;;;1999.90;999.90;;;18.20;99.90;;;;;;5075764;28;20453;-61
2022/09/07 01:34:22;;;;;;;1999.90;999.90;;;18.10;99.90;;;;;;5076695;28;20048;-61
2022/09/07 01:36:56;;;;;;;1999.90;999.90;;;18.00;99.90;;;;;;5074286;28;20044;-61
2022/09/07 01:39:28;;;;;;;1999.90;999.90;;;17.90;99.90;;;;;;5073689;28;20063;-61
2022/09/07 01:42:00;;;;;;;1999.90;999.90;;;17.80;99.90;;;;;;5074324;28;20060;-61
2022/09/07 01:44:33;;;;;;;1999.90;999.90;;;17.60;99.90;;;;;;5074446;28;20122;-61
2022/09/07 01:47:11;;;;;;;1999.90;999.90;;;17.50;99.90;;;;;;5073881;28;20392;-60
2022/09/07 01:49:44;;;;;;;1999.90;999.90;;;17.40;99.90;;;;;;5074302;28;20489;-61
2022/09/07 01:52:21;;;;;;;1999.90;999.90;;;17.30;99.90;;;;;;5073425;28;20044;-61
2022/09/07 01:54:53;;;;;;;1999.90;999.90;;;16.80;99.90;;;;;;5074161;28;20052;-61
2022/09/07 01:57:32;;;;;;;1999.90;999.90;;;16.70;99.90;;;;;;5074139;28;20131;-61
2022/09/07 02:00:08;;;;;;;1999.90;999.90;;;16.50;99.90;;;;;;5073415;28;20052;-61
2022/09/07 02:02:47;;;;;;;1999.90;999.90;;;16.30;99.90;;;;;;5073918;28;20131;-61
2022/09/07 02:05:18;;;;;;;1999.90;999.90;;;16.20;99.90;;;;;;5073925;28;20557;-61
2022/09/07 02:07:48;;;;;;;1999.90;999.90;;;16.10;99.90;;;;;;5073109;28;20124;-61
2022/09/07 02:10:26;;;;;;;1999.90;999.90;;;16.10;99.90;;;;;;5073864;28;20068;-62
2022/09/07 02:13:02;;;;;;;1999.90;999.90;;;16.20;99.90;;;;;;5073191;28;20040;-61
2022/09/07 02:15:48;;;;;;;1999.90;999.90;;;16.20;99.90;;;;;;5073773;28;20060;-62
2022/09/07 02:18:14;;;;;;;1999.90;999.90;;;16.30;99.90;;;;;;5073232;28;20058;-62
2022/09/07 02:20:45;;;;;;;1999.90;999.90;;;16.20;99.90;;;;;;5072849;28;20053;-62
2022/09/07 02:23:17;;;;;;;1999.90;999.90;;;16.20;99.90;;;;;;5073719;28;20094;-62
2022/09/07 02:25:47;;;;;;;1999.90;999.90;;;16.20;99.90;;;;;;5073469;28;20052;-62
2022/09/07 02:28:17;;;;;;;1999.90;999.90;;;16.20;99.90;;;;;;5072918;28;20471;-62
2022/09/07 02:30:43;;;;;;;1999.90;999.90;;;16.20;99.90;;;;;;5073614;28;20082;-62
2022/09/07 02:33:09;;;;;;;1999.90;999.90;;;16.20;99.90;;;;;;5073389;28;20083;-62
2022/09/07 02:35:35;;;;;;;1999.90;999.90;;;16.30;99.90;;;;;;5072802;28;20090;-62
2022/09/07 02:38:04;;;;;;;1999.90;999.90;;;16.30;99.90;;;;;;5072953;28;20049;-62
2022/09/07 02:40:30;;;;;;;1999.90;999.90;;;16.30;99.90;;;;;;5073512;28;20700;-62
2022/09/07 02:42:58;;;;;;;1999.90;999.90;;;16.30;99.90;;;;;;5072634;28;20044;-62
2022/09/07 02:45:24;;;;;;;1999.90;999.90;;;16.30;99.90;;;;;;5073350;28;20133;-62
2022/09/07 02:48:18;;;;;;;1999.90;999.90;;;16.30;99.90;;;;;;5073020;28;20045;-61
2022/09/07 02:50:48;;;;;;;1999.90;999.90;;;16.40;99.90;;;;;;5073206;28;20127;-62
2022/09/07 02:53:38;;;;;;;1999.90;999.90;;;16.40;99.90;;;;;;5073098;28;20048;-62
2022/09/07 02:56:21;;;;;;;1999.90;999.90;;;16.50;99.90;;;;;;5054106;28;20490;-62
2022/09/07 02:58:46;;;;;;;1999.90;999.90;;;16.50;99.90;;;;;;5054836;28;20182;-62
2022/09/07 03:01:28;;;;;;;1999.90;999.90;;;16.60;99.90;;;;;;5072785;28;20048;-62
2022/09/07 03:04:17;;;;;;;1999.90;999.90;;;16.70;99.90;;;;;;5072216;28;20053;-62
2022/09/07 03:06:50;;;;;;;1999.90;999.90;;;16.70;99.90;;;;;;5072878;28;20059;-62
2022/09/07 03:09:23;;;;;;;1999.90;999.90;;;16.80;99.90;;;;;;5087439;28;20048;-62
2022/09/07 03:11:50;;;;;;;1999.90;999.90;;;16.80;99.90;;;;;;5072884;28;20055;-62
2022/09/07 03:14:18;;;;;;;1999.90;999.90;;;16.80;99.90;;;;;;5072580;28;20052;-62
2022/09/07 03:16:48;;;;;;;1999.90;999.90;;;16.90;99.90;;;;;;5071492;28;20506;-62
2022/09/07 03:19:14;;;;;;;1999.90;999.90;;;16.90;99.90;;;;;;5054341;28;20524;-61
2022/09/07 03:21:40;;;;;;;1999.90;999.90;;;16.90;99.90;;;;;;5072363;28;20048;-62
2022/09/07 03:24:05;;;;;;;1999.90;999.90;;;16.90;99.90;;;;;;5053710;28;20053;-62
2022/09/07 03:26:31;;;;;;;1999.90;999.90;;;16.90;99.90;;;;;;5072447;28;20175;-62
2022/09/07 03:28:57;;;;;;;1999.90;999.90;;;17.10;99.90;;;;;;5072477;28;20479;-62
2022/09/07 03:31:23;;;;;;;1999.90;999.90;;;17.00;99.90;;;;;;5071666;28;20055;-62
2022/09/07 03:33:49;;;;;;;1999.90;999.90;;;17.00;99.90;;;;;;5072350;28;20067;-62
2022/09/07 03:36:14;;;;;;;1999.90;999.90;;;17.00;99.90;;;;;;5071953;28;20078;-62
2022/09/07 03:38:40;;;;;;;1999.90;999.90;;;17.00;99.90;;;;;;5070985;28;20502;-62
2022/09/07 03:41:07;;;;;;;1999.90;999.90;;;17.10;99.90;;;;;;5071955;28;20052;-62
2022/09/07 03:43:33;;;;;;;1999.90;999.90;;;17.10;99.90;;;;;;5072127;28;20056;-62
2022/09/07 03:46:01;;;;;;;1999.90;999.90;;;17.10;99.90;;;;;;5071226;28;20379;-62
2022/09/07 03:48:31;;;;;;;1999.90;999.90;;;17.10;99.90;;;;;;5072012;28;20045;-62
2022/09/07 03:50:59;;;;;;;1999.90;999.90;;;17.10;99.90;;;;;;5071207;28;20045;-62
2022/09/07 03:53:25;;;;;;;1999.90;999.90;;;17.10;99.90;;;;;;5071113;28;20048;-62
2022/09/07 03:55:59;;;;;;;1999.90;999.90;;;17.10;99.90;;;;;;5053741;28;20095;-62
2022/09/07 03:58:26;;;;;;;1999.90;999.90;;;17.10;99.90;;;;;;5071205;28;20501;-62
2022/09/07 04:00:52;;;;;;;1999.90;999.90;;;17.10;99.90;;;;;;5071775;28;20063;-62
2022/09/07 04:03:18;;;;;;;1999.90;999.90;;;17.10;99.90;;;;;;5053499;28;20044;-62
2022/09/07 04:05:44;;;;;;;1999.90;999.90;;;17.10;99.90;;;;;;5070750;28;20045;-62
2022/09/07 04:08:10;;;;;;;1999.90;999.90;;;17.10;99.90;;;;;;5071762;28;20492;-62
2022/09/07 04:10:37;;;;;;;1999.90;999.90;;;17.10;99.90;;;;;;5071316;28;20059;-62
2022/09/07 04:13:03;;;;;;;1999.90;999.90;;;17.10;99.90;;;;;;5070738;28;20132;-62
2022/09/07 04:15:29;;;;;;;1999.90;999.90;;;17.10;99.90;;;;;;5071449;28;20477;-62
2022/09/07 04:17:55;;;;;;;1999.90;999.90;;;17.10;99.90;;;;;;5070521;28;20061;-62
2022/09/07 04:20:21;;;;;;;1999.90;999.90;;;17.00;99.90;;;;;;5069893;28;20505;-62
2022/09/07 04:22:48;;;;;;;1999.90;999.90;;;17.00;99.90;;;;;;5070590;28;20127;-62
2022/09/07 04:25:14;;;;;;;1999.90;999.90;;;17.00;99.90;;;;;;5070623;28;20048;-61
2022/09/07 04:27:41;;;;;;;1999.90;999.90;;;17.00;99.90;;;;;;5069814;28;20041;-62
2022/09/07 04:30:07;;;;;;;1999.90;999.90;;;16.90;99.90;;;;;;5052306;28;20127;-62
2022/09/07 04:32:33;;;;;;;1999.90;999.90;;;16.90;99.90;;;;;;5070627;28;20039;-62
2022/09/07 04:34:58;;;;;;;1999.90;999.90;;;16.90;99.90;;;;;;5069538;28;20060;-62
2022/09/07 04:37:24;;;;;;;1999.90;999.90;;;16.80;99.90;;;;;;5070246;28;20777;-62
2022/09/07 04:39:50;;;;;;;1999.90;999.90;;;16.80;99.90;;;;;;5070441;28;20057;-61
2022/09/07 04:42:17;;;;;;;1999.90;999.90;;;16.80;99.90;;;;;;5069674;28;20386;-62
2022/09/07 04:44:42;;;;;;;1999.90;999.90;;;16.70;99.90;;;;;;5070060;28;20443;-62
2022/09/07 04:47:08;;;;;;;1999.90;999.90;;;16.70;99.90;;;;;;5070080;28;20083;-62
2022/09/07 04:49:34;;;;;;;1999.90;999.90;;;16.70;99.90;;;;;;5069468;28;20602;-62
2022/09/07 04:52:00;;;;;;;1999.90;999.90;;;16.70;99.90;;;;;;5070280;28;20556;-62
2022/09/07 04:54:26;;;;;;;1999.90;999.90;;;16.70;99.90;;;;;;5069980;28;20069;-61
2022/09/07 04:56:52;;;;;;;1999.90;999.90;;;16.70;99.90;;;;;;5069545;28;20052;-61
2022/09/07 04:59:18;;;;;;;1999.90;999.90;;;16.70;99.90;;;;;;5070204;28;20127;-61
2022/09/07 05:01:43;;;;;;;1999.90;999.90;;;16.70;99.90;;;;;;5067921;28;20128;-61
2022/09/07 05:04:09;;;;;;;1999.90;999.90;;;16.70;99.90;;;;;;5069963;28;20088;-61
2022/09/07 05:06:35;;;;;;;1999.90;999.90;;;16.70;99.90;;;;;;5069909;28;20054;-62
2022/09/07 05:09:01;;;;;;;1999.90;999.90;;;16.70;99.90;;;;;;5069228;28;20536;-61
2022/09/07 05:11:27;;;;;;;1999.90;999.90;;;16.70;99.90;;;;;;5069992;28;20033;-62
2022/09/07 05:13:55;;;;;;;1999.90;999.90;;;16.70;99.90;;;;;;5069922;28;20044;-62
2022/09/07 05:16:23;;;;;;;1999.90;999.90;;;16.80;99.90;;;;;;5031640;28;1060291;-61
2022/09/07 05:18:50;;;;;;;1999.90;999.90;;;16.80;99.90;;;;;;5052497;28;20064;-61
2022/09/07 05:21:19;;;;;;;1999.90;999.90;;;16.80;99.90;;;;;;5070716;28;20410;-61
2022/09/07 05:23:49;;;;;;;1999.90;999.90;;;16.80;99.90;;;;;;5069962;28;20060;-61
2022/09/07 05:26:15;;;;;;;1999.90;999.90;;;16.80;99.90;;;;;;5071537;28;20084;-61
2022/09/07 05:28:40;;;;;;;1999.90;999.90;;;16.90;99.90;;;;;;5088482;28;20088;-61
2022/09/07 05:31:15;;;;;;;1999.90;999.90;;;16.90;99.90;;;;;;5072110;28;20394;-61
2022/09/07 05:33:49;;;;;;;1999.90;999.90;;;16.90;99.90;;;;;;5072951;28;20538;-61
2022/09/07 05:36:15;;;;;;;1999.90;999.90;;;16.90;99.90;;;;;;5072963;28;20048;-61
2022/09/07 05:38:41;;;;;;;1999.90;999.90;;;17.00;99.90;;;;;;5072093;28;20060;-61
2022/09/07 05:41:16;;;;;;;1999.90;999.90;;;17.00;99.90;;;;;;5072733;28;20505;-61
2022/09/07 05:43:42;;;;;;;1999.90;999.90;;;17.10;99.90;;;;;;5072048;28;20048;-62
2022/09/07 05:46:09;;;;;;;1999.90;999.90;;;17.10;99.90;;;;;;5072114;28;20135;-61
2022/09/07 05:48:35;;;;;;;1999.90;999.90;;;17.10;99.90;;;;;;5070281;28;20052;-61
2022/09/07 05:51:01;;;;;;;1999.90;999.90;;;17.10;99.90;;;;;;5069773;28;20118;-61
2022/09/07 05:53:27;;;;;;;1999.90;999.90;;;17.10;99.90;;;;;;5052684;28;20040;-61
2022/09/07 05:55:57;;;;;;;1999.90;999.90;;;17.10;99.90;;;;;;5070331;28;20181;-61
2022/09/07 05:58:23;;;;;;;1999.90;999.90;;;17.20;99.90;;;;;;5069685;28;20066;-62
2022/09/07 06:00:49;;;;;;;1999.90;999.90;;;17.20;99.90;;;;;;5070251;28;20542;-61
2022/09/07 06:03:14;;;;;;;1999.90;999.90;;;17.20;99.90;;;;;;5052076;28;20502;-61
2022/09/07 06:05:40;;;;;;;1999.90;999.90;;;17.20;99.90;;;;;;5069589;28;20060;-61
2022/09/07 06:08:06;;;;;;;1999.90;999.90;;;17.20;99.90;;;;;;5070015;28;20052;-61
2022/09/07 06:10:35;;;;;;;1999.90;999.90;;;17.20;99.90;;;;;;5070292;28;20071;-61
2022/09/07 06:13:02;;;;;;;1999.90;999.90;;;17.20;99.90;;;;;;5071015;28;20056;-61
2022/09/07 06:15:30;;;;;;;1999.90;999.90;;;17.20;99.90;;;;;;5073736;28;20127;-61
2022/09/07 06:17:56;;;;;;;1999.90;999.90;;;17.10;99.90;;;;;;5073388;28;20064;-61
2022/09/07 06:20:21;;;;;;;1999.90;999.90;;;17.10;99.90;;;;;;5073042;28;20048;-61
2022/09/07 06:22:47;;;;;;;1999.90;999.90;;;17.20;99.90;;;;;;5073465;28;20049;-61
2022/09/07 06:25:13;;;;;;;1999.90;999.90;;;17.20;99.90;;;;;;5073358;28;20493;-61
2022/09/07 06:27:39;;;;;;;1999.90;999.90;;;17.20;99.90;;;;;;5072842;28;20045;-61
2022/09/07 06:30:06;;;;;;;1999.90;999.90;;;17.20;99.90;;;;;;5073505;28;20088;-61
2022/09/07 06:32:36;;;;;;;1999.90;999.90;;;17.30;99.90;;;;;;5073471;28;20123;-61
2022/09/07 06:35:03;;;;;;;1999.90;999.90;;;17.30;99.90;;;;;;5071677;28;20053;-61
2022/09/07 06:37:29;;;;;;;1999.90;999.90;;;17.40;99.90;;;;;;5072068;28;20495;-61
2022/09/07 06:39:54;;;;;;;1999.90;999.90;;;17.50;99.90;;;;;;5072116;28;20060;-61
2022/09/07 06:42:20;;;;;;;1999.90;999.90;;;17.50;99.90;;;;;;5071463;28;20040;-61
2022/09/07 06:44:50;;;;;;;1999.90;999.90;;;17.70;99.90;;;;;;5054788;28;20101;-61
2022/09/07 06:47:16;;;;;;;1999.90;999.90;;;17.80;99.90;;;;;;5072438;28;20124;-61
2022/09/07 06:49:42;;;;;;;1999.90;999.90;;;17.90;99.90;;;;;;5073305;28;20111;-61
2022/09/07 06:52:08;;;;;;;1999.90;999.90;;;18.00;99.90;;;;;;5072909;28;20040;-61
2022/09/07 06:54:33;;;;;;;1999.90;999.90;;;18.00;99.90;;;;;;5072029;28;20044;-61
2022/09/07 06:56:59;;;;;;;1999.90;999.90;;;18.00;99.90;;;;;;5073099;28;20045;-61
2022/09/07 06:59:25;;;;;;;1999.90;999.90;;;18.10;99.90;;;;;;5072839;28;20515;-61
2022/09/07 07:01:50;;;;;;;1999.90;999.90;;;18.10;99.90;;;;;;5071860;28;20487;-61
2022/09/07 07:04:16;;;;;;;1999.90;999.90;;;18.20;99.90;;;;;;5072688;28;20048;-61
2022/09/07 07:06:42;;;;;;;1999.90;999.90;;;18.30;99.90;;;;;;5072465;28;20040;-61
2022/09/07 07:09:12;;;;;;;1999.90;999.90;;;18.40;99.90;;;;;;5071764;28;20063;-61
2022/09/07 07:11:38;;;;;;;1999.90;999.90;;;18.40;99.90;;;;;;5072839;28;20084;-61
2022/09/07 07:14:03;;;;;;;1999.90;999.90;;;18.40;99.90;;;;;;5072689;28;20141;-61
2022/09/07 07:16:29;;;;;;;1999.90;999.90;;;18.50;99.90;;;;;;5071840;28;20060;-61
2022/09/07 07:18:56;;;;;;;1999.90;999.90;;;18.60;99.90;;;;;;5072503;28;20052;-61
2022/09/07 07:21:21;;;;;;;1999.90;999.90;;;18.80;99.90;;;;;;5072178;28;20090;-61
2022/09/07 07:23:50;;;;;;;1999.90;999.90;;;18.90;99.90;;;;;;5070954;28;20502;-61
2022/09/07 07:26:18;;;;;;;1999.90;999.90;;;19.00;99.90;;;;;;5072279;28;20087;-61
2022/09/07 07:28:48;;;;;;;1999.90;999.90;;;19.10;99.90;;;;;;5072467;28;20536;-61
2022/09/07 07:31:17;;;;;;;1999.90;999.90;;;19.10;99.90;;;;;;5071659;28;20044;-61
2022/09/07 07:36:31;;;;;;;1999.90;999.90;;;19.10;99.90;;;;;;5070762;28;20049;-61
2022/09/07 07:38:56;;;;;;;1999.90;999.90;;;19.10;99.90;;;;;;5071218;28;20135;-61
2022/09/07 07:41:26;;;;;;;1999.90;999.90;;;19.10;99.90;;;;;;5071265;28;20044;-61
2022/09/07 07:43:55;;;;;;;1999.90;999.90;;;19.10;99.90;;;;;;5068404;28;20044;-61
2022/09/07 07:46:24;;;;;;;1999.90;999.90;;;19.10;99.90;;;;;;5070548;28;20041;-61
2022/09/07 07:48:50;;;;;;;1999.90;999.90;;;19.10;99.90;;;;;;5071085;28;20056;-61
2022/09/07 07:51:16;;;;;;;1999.90;999.90;;;19.00;99.90;;;;;;5070850;28;20044;-61
2022/09/07 07:53:43;;;;;;;1999.90;999.90;;;19.00;99.90;;;;;;5071964;28;20406;-61
2022/09/07 07:56:09;;;;;;;1999.90;999.90;;;18.90;99.90;;;;;;5071624;28;20067;-61
2022/09/07 07:58:37;;;;;;;1999.90;999.90;;;18.80;99.90;;;;;;5070988;28;20055;-61
2022/09/07 08:01:06;;;;;;;1999.90;999.90;;;18.70;99.90;;;;;;5070585;28;20055;-61
2022/09/07 08:03:35;;;;;;;1999.90;999.90;;;18.70;99.90;;;;;;5072052;28;20095;-61
2022/09/07 08:06:10;;;;;;;1999.90;999.90;;;18.70;99.90;;;;;;5072541;28;20044;-61
2022/09/07 08:08:36;;;;;;;1999.90;999.90;;;18.60;99.90;;;;;;5054484;28;20048;-61
2022/09/07 08:11:06;;;;;;;1999.90;999.90;;;18.60;99.90;;;;;;5073831;28;20048;-61
2022/09/07 08:13:34;;;;;;;1999.90;999.90;;;18.70;99.90;;;;;;5073137;28;20497;-61
2022/09/07 08:16:00;;;;;;;1999.90;999.90;;;18.70;99.90;;;;;;5073330;28;20052;-61
2022/09/07 08:18:26;;;;;;;1999.90;999.90;;;18.70;99.90;;;;;;5040544;28;20053;-61
2022/09/07 08:20:52;;;;;;;1999.90;999.90;;;18.80;99.90;;;;;;5050581;28;20099;-59
2022/09/07 08:23:19;;;;;;;1999.90;999.90;;;18.90;99.90;;;;;;5053511;28;20064;-59
2022/09/07 08:25:53;;;;;;;1999.90;999.90;;;19.10;99.90;;;;;;5052827;28;20060;-59
2022/09/07 08:28:20;;;;;;;1999.90;999.90;;;19.10;99.90;;;;;;5053689;28;20462;-60
2022/09/07 08:30:46;;;;;;;1999.90;999.90;;;19.10;99.90;;;;;;5053394;28;20471;-59
2022/09/07 08:33:12;;;;;;;1999.90;999.90;;;19.30;99.90;;;;;;5052502;28;20053;-59
2022/09/07 08:35:38;;;;;;;1999.90;999.90;;;19.30;99.90;;;;;;5053366;28;20049;-59
2022/09/07 08:38:04;;;;;;;1999.90;999.90;;;19.40;99.90;;;;;;5053484;28;20040;-59
2022/09/07 08:40:34;;;;;;;1999.90;999.90;;;19.50;99.90;;;;;;5052785;28;20071;-60
2022/09/07 08:43:18;;;;;;;1999.90;999.90;;;19.60;99.90;;;;;;5053508;28;20037;-59
2022/09/07 08:45:49;;;;;;;1999.90;999.90;;;19.70;99.90;;;;;;5053269;28;20491;-60
2022/09/07 08:48:19;;;;;;;1999.90;999.90;;;19.70;99.90;;;;;;5052800;28;20049;-59
2022/09/07 08:50:55;;;;;;;1999.90;999.90;;;19.70;99.90;;;;;;5017926;28;20060;-59
2022/09/07 08:53:23;;;;;;;1999.90;999.90;;;19.70;99.90;;;;;;5034264;28;20052;-60
2022/09/07 08:55:55;;;;;;;1999.90;999.90;;;19.60;99.90;;;;;;5052473;28;20060;-59
2022/09/07 08:58:27;;;;;;;1999.90;999.90;;;19.60;99.90;;;;;;5053151;28;20175;-59
2022/09/07 09:00:52;;;;;;;1999.90;999.90;;;19.60;99.90;;;;;;5052417;28;20041;-59
2022/09/07 09:03:27;;;;;;;1999.90;999.90;;;19.60;99.90;;;;;;5044058;28;20494;-59
2022/09/07 09:06:26;;;;;;;1999.90;999.90;;;19.60;99.90;;;;;;5043804;28;20093;-60
2022/09/07 09:09:00;;;;;;;1999.90;999.90;;;19.60;99.90;;;;;;5048027;28;20048;-59
2022/09/07 09:11:47;;;;;;;1999.90;999.90;;;19.70;99.90;;;;;;5052023;28;20049;-61
2022/09/07 09:14:20;;;;;;;1999.90;999.90;;;19.70;99.90;;;;;;5052927;28;20131;-61
2022/09/07 09:16:51;;;;;;;1999.90;999.90;;;19.80;99.90;;;;;;5051691;28;20056;-61
2022/09/07 09:19:24;;;;;;;1999.90;999.90;;;19.90;99.90;;;;;;5034938;28;20053;-61
2022/09/07 09:22:06;;;;;;;1999.90;999.90;;;19.90;99.90;;;;;;5052001;28;20049;-61
2022/09/07 09:24:36;;;;;;;1999.90;999.90;;;19.90;99.90;;;;;;5052666;28;20049;-62
2022/09/07 09:27:02;;;;;;;1999.90;999.90;;;19.90;99.90;;;;;;5052629;28;20056;-61
2022/09/07 09:29:28;;;;;;;1999.90;999.90;;;20.00;99.90;;;;;;5051686;28;20049;-61
2022/09/07 09:31:53;;;;;;;1999.90;999.90;;;20.00;99.90;;;;;;5052358;28;20056;-61
2022/09/07 09:34:20;;;;;;;1999.90;999.90;;;20.20;99.90;;;;;;5048420;28;20501;-61
2022/09/07 09:36:49;;;;;;;1999.90;999.90;;;20.30;99.90;;;;;;5050675;28;20051;-61
2022/09/07 09:39:26;;;;;;;1999.90;999.90;;;20.30;99.90;;;;;;5036266;28;20045;-61
2022/09/07 09:41:54;;;;;;;1999.90;999.90;;;20.50;99.90;;;;;;5049161;28;20073;-61
2022/09/07 09:44:21;;;;;;;1999.90;999.90;;;20.60;99.90;;;;;;5050874;28;20041;-61
2022/09/07 09:46:51;;;;;;;1999.90;999.90;;;20.80;99.90;;;;;;5034194;28;20049;-61
2022/09/07 09:49:24;;;;;;;1999.90;999.90;;;20.90;99.90;;;;;;5055383;28;20041;-61
2022/09/07 09:51:54;;;;;;;1999.90;999.90;;;21.00;99.90;;;;;;5050854;28;20065;-61
2022/09/07 09:54:36;;;;;;;1999.90;999.90;;;21.10;99.90;;;;;;5034505;28;20053;-61
2022/09/07 09:57:02;;;;;;;1999.90;999.90;;;21.20;99.90;;;;;;5037320;28;20045;-61
2022/09/07 09:59:31;;;;;;;1999.90;999.90;;;21.50;99.90;;;;;;5055245;28;20099;-61
2022/09/07 10:01:57;;;;;;;1999.90;999.90;;;21.70;99.90;;;;;;5050783;28;20379;-61
2022/09/07 10:04:24;;;;;;;1999.90;999.90;;;21.70;99.90;;;;;;5054841;28;20103;-61
2022/09/07 10:06:53;;;;;;;1999.90;999.90;;;21.60;99.90;;;;;;5055433;28;20091;-61
2022/09/07 10:09:23;;;;;;;1999.90;999.90;;;21.60;99.90;;;;;;5054385;28;20041;-61
2022/09/07 10:11:58;;;;;;;1999.90;999.90;;;21.60;99.90;;;;;;5074531;28;20055;-61
2022/09/07 10:14:40;;;;;;;1999.90;999.90;;;21.50;99.90;;;;;;5075535;28;20135;-61
2022/09/07 10:17:18;;;;;;;;;;;21.40;99.90;;;;;;5075981;28;20057;-61
2022/09/07 10:19:44;;;;;;;1999.90;999.90;;;21.40;99.90;;;;;;5074124;28;19920;-61
2022/09/07 10:22:29;;;;;;;1999.90;999.90;;;21.40;99.90;;;;;;5075646;28;20480;-61
2022/09/07 10:24:55;;;;;;;1999.90;999.90;;;21.40;99.90;;;;;;5061794;28;20136;-61
2022/09/07 10:27:29;;;;;;;1999.90;999.90;;;21.40;99.90;;;;;;5036295;28;20120;-61
2022/09/07 10:29:55;;;;;;;1999.90;999.90;;;21.40;99.90;;;;;;5055610;28;20496;-61
2022/09/07 10:32:41;;;;;;;1999.90;999.90;;;21.30;99.90;;;;;;5053182;28;20099;-61
2022/09/07 10:35:19;;;;;;;1999.90;999.90;;;21.20;99.90;;;;;;5054813;28;20131;-61
2022/09/07 10:37:57;;;;;;;1999.90;999.90;;;21.20;99.90;;;;;;5054710;28;20423;-61
2022/09/07 10:40:37;;;;;;;1999.90;999.90;;;21.20;99.90;;;;;;5053954;28;20056;-61
2022/09/07 10:43:11;;;;;;;1999.90;999.90;;;21.30;99.90;;;;;;5055210;28;20045;-61
2022/09/07 10:45:51;;;;;;;1999.90;999.90;;;21.40;99.90;;;;;;5054528;28;20045;-61
2022/09/07 10:48:26;;;;;;;1999.90;999.90;;;21.30;99.90;;;;;;5057595;28;20483;-59
2022/09/07 10:50:57;;;;;;;1999.90;999.90;;;21.20;99.90;;;;;;5074906;28;20092;-59
2022/09/07 10:53:30;;;;;;;1999.90;999.90;;;21.00;99.90;;;;;;5073456;28;20044;-59
2022/09/07 10:56:08;;;;;;;1999.90;999.90;;;20.90;99.90;;;;;;5036565;28;20053;-59
2022/09/07 10:58:59;;;;;;;1999.90;999.90;;;21.00;99.90;;;;;;5054945;28;20076;-59
2022/09/07 11:01:40;;;;;;;1999.90;999.90;;;21.10;99.90;;;;;;5054224;28;20084;-59
2022/09/07 11:04:17;;;;;;;1999.90;999.90;;;21.30;99.90;;;;;;5053923;28;20062;-59
2022/09/07 11:06:49;;;;;;;1999.90;999.90;;;21.40;99.90;;;;;;5054857;28;20049;-59
2022/09/07 11:09:26;;;;;;;1999.90;999.90;;;21.80;99.90;;;;;;5053668;28;20604;-59
2022/09/07 11:12:04;;;;;;;1999.90;999.90;;;22.50;99.90;;;;;;5053692;28;20047;-59
2022/09/07 11:14:43;;;;;;;1999.90;999.90;;;23.80;99.90;;;;;;5053465;28;20076;-59
2022/09/07 11:17:17;;;;;;;1999.90;999.90;;;25.30;99.90;;;;;;5058790;28;20056;-61
2022/09/07 11:19:51;;;;;;;1999.90;999.90;;;26.50;99.90;;;;;;5074391;28;20048;-61
2022/09/07 11:22:28;;;;;;;1999.90;999.90;;;26.00;97.80;;;;;;5073586;28;20047;-61
2022/09/07 11:25:11;;;;;;;1999.90;999.90;;;25.70;99.90;;;;;;5072375;28;20398;-61
2022/09/07 11:27:43;;;;;;;1999.90;999.90;;;25.70;99.90;;;;;;5074468;28;20047;-61
2022/09/07 11:30:19;;;;;;;1999.90;999.90;;;26.10;99.90;;;;;;5073063;28;20182;-61
2022/09/07 11:32:51;;;;;;;1999.90;999.90;;;26.20;99.90;;;;;;5073843;28;20174;-61
2022/09/07 11:35:32;;;;;;;1999.90;999.90;;;25.90;99.90;;;;;;5074147;28;20068;-61
2022/09/07 11:38:05;;;;;;;1999.90;999.90;;;25.30;99.90;;;;;;5065129;28;20055;-61
2022/09/07 11:40:38;;;;;;;1999.90;999.90;;;24.90;99.90;;;;;;5073892;28;20088;-61
2022/09/07 11:43:25;;;;;;;1999.90;999.90;;;24.70;99.90;;;;;;5073292;28;20033;-61
2022/09/07 11:45:57;;;;;;;1999.90;999.90;;;24.70;99.90;;;;;;5072594;28;20076;-61
2022/09/07 11:48:26;;;;;;;1999.90;999.90;;;24.40;99.90;;;;;;5073307;28;20036;-61
2022/09/07 11:50:58;;;;;;;1999.90;999.90;;;24.40;99.90;;;;;;5073051;28;20048;-61
2022/09/07 11:53:28;;;;;;;1999.90;999.90;;;24.20;99.90;;;;;;5072641;28;20037;-61
2022/09/07 11:56:03;;;;;;;1999.90;999.90;;;23.90;99.90;;;;;;5071893;28;20537;-61
2022/09/07 11:59:02;;;;;;;1999.90;999.90;;;24.00;99.90;;;;;;5072727;28;20044;-61
2022/09/07 12:01:54;;;;;;;1999.90;999.90;;;25.40;99.90;;;;;;5073396;28;20055;-61
2022/09/07 12:05:06;;;;;;;1999.90;999.90;;;27.20;98.20;;;;;;5072385;28;20575;-62
2022/09/07 12:07:40;;;;;;;1999.90;999.90;;;27.80;95.00;;;;;;5073456;28;20049;-61
2022/09/07 12:10:22;;;;;;;1999.90;999.90;;;27.80;95.90;;;;;;5068382;28;20036;-61
2022/09/07 12:12:58;;;;;;;1999.90;999.90;;;27.50;96.10;;;;;;5072560;28;20049;-62
2022/09/07 12:15:31;;;;;;;1999.90;999.90;;;27.20;96.00;;;;;;5073110;28;20044;-62
2022/09/07 12:18:14;;;;;;;1999.90;999.90;;;27.10;96.00;;;;;;5083207;28;20135;-60
2022/09/07 12:20:41;;;;;;;;;;;27.70;95.40;;;;;;5094112;28;20052;-59